createdAt,value
2019-06-27T00:00:59.369Z,24.00
2019-06-27T00:03:25.455Z,24.00
2019-06-27T00:05:51.539Z,24.00
2019-06-27T00:08:17.579Z,23.90
2019-06-27T00:10:43.933Z,23.90
2019-06-27T00:13:10.301Z,23.90
2019-06-27T00:15:36.357Z,23.80
2019-06-27T00:18:02.501Z,23.70
2019-06-27T00:20:28.675Z,23.60
2019-06-27T00:22:54.827Z,23.60
2019-06-27T00:25:20.897Z,23.60
2019-06-27T00:27:47.021Z,23.50
2019-06-27T00:30:13.475Z,23.50
2019-06-27T00:32:39.559Z,23.40
2019-06-27T00:35:06.415Z,23.40
2019-06-27T00:37:32.536Z,23.40
2019-06-27T00:39:58.584Z,23.40
2019-06-27T00:42:24.715Z,23.40
2019-06-27T00:44:50.771Z,23.30
2019-06-27T00:47:16.813Z,23.40
2019-06-27T00:49:43.957Z,23.30
2019-06-27T00:52:10.026Z,23.30
2019-06-27T00:54:36.175Z,23.20
2019-06-27T00:57:13.597Z,23.10
2019-06-27T00:59:30.395Z,23.10
2019-06-27T01:01:56.517Z,23.10
2019-06-27T01:04:22.674Z,23.10
2019-06-27T01:06:48.827Z,23.00
2019-06-27T01:09:14.894Z,23.00
2019-06-27T01:11:41.031Z,22.90
2019-06-27T01:14:07.106Z,22.90
2019-06-27T01:16:33.171Z,22.90
2019-06-27T01:19:00.417Z,22.90
2019-06-27T01:21:26.540Z,22.90
2019-06-27T01:23:52.619Z,22.80
2019-06-27T01:26:18.659Z,22.80
2019-06-27T01:28:44.733Z,22.80
2019-06-27T01:31:10.840Z,22.70
2019-06-27T01:33:36.917Z,22.70
2019-06-27T01:36:03.126Z,22.60
2019-06-27T01:38:29.234Z,22.60
2019-06-27T01:40:55.297Z,22.50
2019-06-27T01:43:21.338Z,22.50
2019-06-27T01:45:52.076Z,22.50
2019-06-27T01:48:18.103Z,22.50
2019-06-27T01:50:44.147Z,22.50
2019-06-27T01:53:10.321Z,22.40
2019-06-27T01:55:36.380Z,22.40
2019-06-27T01:58:02.425Z,22.40
2019-06-27T02:00:28.770Z,22.30
2019-06-27T02:02:54.819Z,22.30
2019-06-27T02:05:20.972Z,22.30
2019-06-27T02:07:47.037Z,22.30
2019-06-27T02:10:13.588Z,22.30
2019-06-27T02:12:39.741Z,22.30
2019-06-27T02:15:06.786Z,22.10
2019-06-27T02:17:33.030Z,22.10
2019-06-27T02:19:59.120Z,22.00
2019-06-27T02:22:25.269Z,22.00
2019-06-27T02:24:51.316Z,22.00
2019-06-27T02:27:17.378Z,22.00
2019-06-27T02:29:43.453Z,21.90
2019-06-27T02:32:09.515Z,21.90
2019-06-27T02:34:35.630Z,21.90
2019-06-27T02:37:01.679Z,21.90
2019-06-27T02:39:27.736Z,21.90
2019-06-27T02:41:53.775Z,21.90
2019-06-27T02:44:19.817Z,21.90
2019-06-27T02:46:45.893Z,21.90
2019-06-27T02:49:12.034Z,21.90
2019-06-27T02:51:38.074Z,21.90
2019-06-27T02:54:04.129Z,21.90
2019-06-27T02:56:30.154Z,21.80
2019-06-27T02:58:56.223Z,21.80
2019-06-27T03:01:22.379Z,21.80
2019-06-27T03:03:48.421Z,21.70
2019-06-27T03:06:14.465Z,21.70
2019-06-27T03:08:40.552Z,21.70
2019-06-27T03:11:06.608Z,21.70
2019-06-27T03:13:32.683Z,21.60
2019-06-27T03:15:59.551Z,21.60
2019-06-27T03:18:25.702Z,21.60
2019-06-27T03:20:51.755Z,21.60
2019-06-27T03:23:17.840Z,21.50
2019-06-27T03:25:43.943Z,21.50
2019-06-27T03:28:10.086Z,21.50
2019-06-27T03:30:36.299Z,21.50
2019-06-27T03:33:02.535Z,21.50
2019-06-27T03:35:28.655Z,21.40
2019-06-27T03:37:54.689Z,21.40
2019-06-27T03:40:20.863Z,21.40
2019-06-27T03:42:47.013Z,21.30
2019-06-27T03:45:15.934Z,21.30
2019-06-27T03:47:41.098Z,21.30
2019-06-27T03:50:07.295Z,21.20
2019-06-27T03:52:33.368Z,21.30
2019-06-27T03:55:00.835Z,21.30
2019-06-27T03:57:26.953Z,21.20
2019-06-27T03:59:53.028Z,21.20
2019-06-27T04:02:21.051Z,21.20
2019-06-27T04:04:47.177Z,21.10
2019-06-27T04:07:13.309Z,21.10
2019-06-27T04:09:39.441Z,21.10
2019-06-27T04:12:05.584Z,21.10
2019-06-27T04:14:31.696Z,21.20
2019-06-27T04:16:57.903Z,21.20
2019-06-27T04:19:24.060Z,21.20
2019-06-27T04:21:50.217Z,21.20
2019-06-27T04:24:16.275Z,21.20
2019-06-27T04:26:42.527Z,21.20
2019-06-27T04:29:08.612Z,21.30
2019-06-27T04:31:34.777Z,21.30
2019-06-27T04:34:00.847Z,21.30
2019-06-27T04:36:26.891Z,21.30
2019-06-27T04:38:53.002Z,21.30
2019-06-27T04:41:19.127Z,21.40
2019-06-27T04:43:45.284Z,21.40
2019-06-27T04:46:11.333Z,21.40
2019-06-27T04:48:37.533Z,21.40
2019-06-27T04:51:03.664Z,21.50
2019-06-27T04:53:31.654Z,21.50
2019-06-27T04:55:57.792Z,21.60
2019-06-27T04:58:23.941Z,21.60
2019-06-27T05:00:50.082Z,21.70
2019-06-27T05:03:16.231Z,21.70
2019-06-27T05:05:42.330Z,21.70
2019-06-27T05:08:08.418Z,21.80
2019-06-27T05:10:34.506Z,21.90
2019-06-27T05:13:01.079Z,21.80
2019-06-27T05:15:28.095Z,21.90
2019-06-27T05:17:57.161Z,22.00
2019-06-27T05:20:23.648Z,22.00
2019-06-27T05:22:50.404Z,22.10
2019-06-27T05:25:29.773Z,22.10
2019-06-27T05:27:55.979Z,22.20
2019-06-27T05:30:22.359Z,22.20
2019-06-27T05:32:48.491Z,22.30
2019-06-27T05:35:14.579Z,22.40
2019-06-27T05:37:40.655Z,22.50
2019-06-27T05:40:07.624Z,22.50
2019-06-27T05:42:33.677Z,22.60
2019-06-27T05:44:59.722Z,22.70
2019-06-27T05:47:25.787Z,22.70
2019-06-27T05:49:51.824Z,22.80
2019-06-27T05:52:17.873Z,22.90
2019-06-27T05:54:43.947Z,22.90
2019-06-27T05:57:10.060Z,23.00
2019-06-27T05:59:36.119Z,23.10
2019-06-27T06:02:02.204Z,23.20
2019-06-27T06:04:28.317Z,23.30
2019-06-27T06:06:54.425Z,23.30
2019-06-27T06:09:20.693Z,23.40
2019-06-27T06:11:46.867Z,23.50
2019-06-27T06:14:12.892Z,23.60
2019-06-27T06:16:39.047Z,23.70
2019-06-27T06:19:05.094Z,23.70
2019-06-27T06:21:31.236Z,23.80
2019-06-27T06:23:57.301Z,23.90
2019-06-27T06:26:23.323Z,24.00
2019-06-27T06:28:49.398Z,24.00
2019-06-27T06:31:15.478Z,24.10
2019-06-27T06:33:41.541Z,24.10
2019-06-27T06:36:07.738Z,24.20
2019-06-27T06:38:33.761Z,24.30
2019-06-27T06:40:59.792Z,24.30
2019-06-27T06:43:25.829Z,24.30
2019-06-27T06:45:51.906Z,24.40
2019-06-27T06:48:17.952Z,24.40
2019-06-27T06:50:44.009Z,24.50
2019-06-27T06:53:10.054Z,24.50
2019-06-27T06:55:36.143Z,24.60
2019-06-27T06:58:02.315Z,24.80
2019-06-27T07:00:28.570Z,24.80
2019-06-27T07:02:54.709Z,24.90
2019-06-27T07:05:20.749Z,24.90
2019-06-27T07:07:46.822Z,24.90
2019-06-27T07:10:14.338Z,25.00
2019-06-27T07:12:40.405Z,25.10
2019-06-27T07:15:06.859Z,25.10
2019-06-27T07:17:32.934Z,25.20
2019-06-27T07:19:58.962Z,25.30
2019-06-27T07:22:25.023Z,25.30
2019-06-27T07:24:51.059Z,25.30
2019-06-27T07:27:17.128Z,25.30
2019-06-27T07:29:43.170Z,25.20
2019-06-27T07:32:09.220Z,25.30
2019-06-27T07:34:35.439Z,25.40
2019-06-27T07:37:01.458Z,25.50
2019-06-27T07:39:27.622Z,25.50
2019-06-27T07:41:53.754Z,25.50
2019-06-27T07:44:20.464Z,25.40
2019-06-27T07:46:46.650Z,25.50
2019-06-27T07:49:12.695Z,25.50
2019-06-27T07:51:38.735Z,25.50
2019-06-27T07:54:04.812Z,25.50
2019-06-27T07:56:30.864Z,25.50
2019-06-27T07:58:56.895Z,25.60
2019-06-27T08:01:34.573Z,25.60
2019-06-27T08:03:50.887Z,25.70
2019-06-27T08:06:16.949Z,25.70
2019-06-27T08:08:42.971Z,25.90
2019-06-27T08:11:09.040Z,26.00
2019-06-27T08:13:35.203Z,26.10
2019-06-27T08:16:01.243Z,26.20
2019-06-27T08:18:28.421Z,26.20
2019-06-27T08:20:54.655Z,26.20
2019-06-27T08:23:20.813Z,26.30
2019-06-27T08:25:46.861Z,26.40
2019-06-27T08:28:12.921Z,26.50
2019-06-27T08:30:39.007Z,26.60
2019-06-27T08:33:05.047Z,26.60
2019-06-27T08:35:33.494Z,26.60
2019-06-27T08:37:59.135Z,26.60
2019-06-27T08:40:25.277Z,26.60
2019-06-27T08:42:51.335Z,26.70
2019-06-27T08:45:17.489Z,26.80
2019-06-27T08:47:43.616Z,26.90
2019-06-27T08:50:09.883Z,27.10
2019-06-27T08:52:36.025Z,27.20
2019-06-27T08:55:06.018Z,27.30
2019-06-27T08:57:32.058Z,27.40
2019-06-27T08:59:58.121Z,27.60
2019-06-27T09:02:24.185Z,27.60
2019-06-27T09:05:57.643Z,27.70
2019-06-27T09:08:23.656Z,27.70
2019-06-27T09:10:49.710Z,28.00
2019-06-27T09:13:15.755Z,28.10
2019-06-27T09:15:41.829Z,28.30
2019-06-27T09:18:07.878Z,28.40
2019-06-27T09:20:33.983Z,28.40
2019-06-27T09:23:00.245Z,28.70
2019-06-27T09:25:26.344Z,28.80
2019-06-27T09:27:52.381Z,28.90
2019-06-27T09:30:18.600Z,28.90
2019-06-27T09:32:44.781Z,28.90
2019-06-27T09:35:11.554Z,29.00
2019-06-27T09:37:37.730Z,29.00
2019-06-27T09:40:05.612Z,29.20
2019-06-27T09:42:31.715Z,29.40
2019-06-27T09:44:57.807Z,29.60
2019-06-27T09:47:23.861Z,29.70
2019-06-27T09:49:49.921Z,29.80
2019-06-27T09:52:16.077Z,30.00
2019-06-27T09:54:42.140Z,30.10
2019-06-27T09:57:08.205Z,30.10
2019-06-27T09:59:34.248Z,30.30
2019-06-27T10:02:00.465Z,30.40
2019-06-27T10:04:26.554Z,30.50
2019-06-27T10:06:52.618Z,30.60
2019-06-27T10:09:18.660Z,30.60
2019-06-27T10:11:44.812Z,30.70
2019-06-27T10:14:10.872Z,30.80
2019-06-27T10:16:36.899Z,30.70
2019-06-27T10:19:03.067Z,30.60
2019-06-27T10:21:29.145Z,30.70
2019-06-27T10:23:55.191Z,30.90
2019-06-27T10:26:21.242Z,30.90
2019-06-27T10:28:47.406Z,30.90
2019-06-27T10:31:13.438Z,30.90
2019-06-27T10:33:39.464Z,31.00
2019-06-27T10:36:05.523Z,31.20
2019-06-27T10:38:31.585Z,31.30
2019-06-27T10:40:57.721Z,31.10
2019-06-27T10:43:23.765Z,31.00
2019-06-27T10:45:49.832Z,31.00
2019-06-27T10:48:15.888Z,31.20
2019-06-27T10:50:41.979Z,31.40
2019-06-27T10:53:08.063Z,31.50
2019-06-27T10:55:34.121Z,31.60
2019-06-27T10:58:00.169Z,31.80
2019-06-27T11:00:26.238Z,32.00
2019-06-27T11:02:52.303Z,32.10
2019-06-27T11:05:18.496Z,32.00
2019-06-27T11:07:44.655Z,32.00
2019-06-27T11:10:11.021Z,31.80
2019-06-27T11:12:38.151Z,32.00
2019-06-27T11:15:08.609Z,32.10
2019-06-27T11:17:34.771Z,32.30
2019-06-27T11:20:00.835Z,32.40
2019-06-27T11:22:26.891Z,32.60
2019-06-27T11:24:53.120Z,32.60
2019-06-27T11:27:19.277Z,32.30
2019-06-27T11:29:45.383Z,32.40
2019-06-27T11:32:11.469Z,32.60
2019-06-27T11:34:37.520Z,32.60
2019-06-27T11:37:03.559Z,32.90
2019-06-27T11:39:29.610Z,33.10
2019-06-27T11:41:55.661Z,33.10
2019-06-27T11:44:21.723Z,32.90
2019-06-27T11:46:47.738Z,33.00
2019-06-27T11:49:13.821Z,33.00
2019-06-27T11:51:39.858Z,33.20
2019-06-27T11:54:06.047Z,33.10
2019-06-27T11:56:32.073Z,33.10
2019-06-27T11:58:58.142Z,33.10
2019-06-27T12:01:24.210Z,33.10
2019-06-27T12:03:50.249Z,33.20
2019-06-27T12:06:16.290Z,33.30
2019-06-27T12:08:42.351Z,33.40
2019-06-27T12:11:08.411Z,33.50
2019-06-27T12:13:34.497Z,33.50
2019-06-27T12:16:00.547Z,33.60
2019-06-27T12:18:26.620Z,33.50
2019-06-27T12:20:52.811Z,33.40
2019-06-27T12:23:18.841Z,33.30
2019-06-27T12:25:44.902Z,33.40
2019-06-27T12:28:10.975Z,33.40
2019-06-27T12:30:37.059Z,33.30
2019-06-27T12:33:03.137Z,33.20
2019-06-27T12:35:29.157Z,33.20
2019-06-27T12:37:55.201Z,33.10
2019-06-27T12:40:22.104Z,33.30
2019-06-27T12:42:48.474Z,33.30
2019-06-27T12:45:15.075Z,33.50
2019-06-27T12:47:41.382Z,33.60
2019-06-27T12:50:08.403Z,33.70
2019-06-27T12:52:34.485Z,33.70
2019-06-27T12:55:00.587Z,33.80
2019-06-27T12:57:26.669Z,33.70
2019-06-27T12:59:52.848Z,33.70
2019-06-27T13:02:18.896Z,33.60
2019-06-27T13:04:44.929Z,33.50
2019-06-27T13:07:11.109Z,33.60
2019-06-27T13:09:37.153Z,33.60
2019-06-27T13:12:25.007Z,33.60
2019-06-27T13:14:51.141Z,33.40
2019-06-27T13:17:17.161Z,33.20
2019-06-27T13:19:43.200Z,33.30
2019-06-27T13:22:09.242Z,33.30
2019-06-27T13:24:35.298Z,33.30
2019-06-27T13:27:01.431Z,33.30
2019-06-27T13:29:27.481Z,33.10
2019-06-27T13:31:53.557Z,33.00
2019-06-27T13:34:19.617Z,33.10
2019-06-27T13:36:45.690Z,33.10
2019-06-27T13:39:11.850Z,33.00
2019-06-27T13:41:37.900Z,33.00
2019-06-27T13:44:04.570Z,32.90
2019-06-27T13:46:30.609Z,32.90
2019-06-27T13:48:56.655Z,32.90
2019-06-27T13:51:22.717Z,32.80
2019-06-27T13:53:48.783Z,33.00
2019-06-27T13:56:14.880Z,33.10
2019-06-27T13:58:40.938Z,33.00
2019-06-27T14:01:10.665Z,33.20
2019-06-27T14:03:48.620Z,33.30
2019-06-27T14:06:03.119Z,33.30
2019-06-27T14:08:29.259Z,33.30
2019-06-27T14:10:55.319Z,33.10
2019-06-27T14:13:21.440Z,33.10
2019-06-27T14:15:47.473Z,33.10
2019-06-27T14:18:13.573Z,33.20
2019-06-27T14:20:39.621Z,33.10
2019-06-27T14:23:05.701Z,33.00
2019-06-27T14:25:31.799Z,33.00
2019-06-27T14:27:57.846Z,33.00
2019-06-27T14:30:24.412Z,33.00
2019-06-27T14:32:53.290Z,33.00
2019-06-27T14:35:18.449Z,32.90
2019-06-27T14:37:44.596Z,32.80
2019-06-27T14:40:11.311Z,32.80
2019-06-27T14:42:37.443Z,32.80
2019-06-27T14:45:05.423Z,32.70
2019-06-27T14:47:31.523Z,32.60
2019-06-27T14:49:57.628Z,32.60
2019-06-27T14:52:23.786Z,32.60
2019-06-27T14:54:49.844Z,32.70
2019-06-27T14:57:15.898Z,32.70
2019-06-27T14:59:41.936Z,32.70
2019-06-27T15:02:08.094Z,32.70
2019-06-27T15:04:34.143Z,32.60
2019-06-27T15:07:00.180Z,32.30
2019-06-27T15:09:26.219Z,32.30
2019-06-27T15:11:52.280Z,32.40
2019-06-27T15:14:18.365Z,32.30
2019-06-27T15:16:44.422Z,32.30
2019-06-27T15:19:10.472Z,32.20
2019-06-27T15:21:36.516Z,32.10
2019-06-27T15:24:02.775Z,32.10
2019-06-27T15:26:28.858Z,32.10
2019-06-27T15:28:54.907Z,32.10
2019-06-27T15:31:22.372Z,32.10
2019-06-27T15:33:48.712Z,32.10
2019-06-27T15:36:14.927Z,32.10
2019-06-27T15:38:41.089Z,32.10
2019-06-27T15:41:07.149Z,32.00
2019-06-27T15:43:33.275Z,32.00
2019-06-27T15:45:59.400Z,32.00
2019-06-27T15:48:25.507Z,31.90
2019-06-27T15:50:51.632Z,31.80
2019-06-27T15:53:17.672Z,31.80
2019-06-27T15:55:45.663Z,31.80
2019-06-27T15:58:11.720Z,31.80
2019-06-27T16:00:39.422Z,31.90
2019-06-27T16:03:05.701Z,31.90
2019-06-27T16:05:32.082Z,31.90
2019-06-27T16:07:58.200Z,31.70
2019-06-27T16:10:24.315Z,31.70
2019-06-27T16:12:50.337Z,31.60
2019-06-27T16:15:16.617Z,31.50
2019-06-27T16:17:42.701Z,31.50
2019-06-27T16:20:10.472Z,31.50
2019-06-27T16:22:36.644Z,31.50
2019-06-27T16:25:04.390Z,31.60
2019-06-27T16:27:30.504Z,31.60
2019-06-27T16:29:56.599Z,31.60
2019-06-27T16:32:22.631Z,31.60
2019-06-27T16:34:48.749Z,31.60
2019-06-27T16:37:14.929Z,31.60
2019-06-27T16:39:41.003Z,31.60
2019-06-27T16:42:07.099Z,31.60
2019-06-27T16:44:33.256Z,31.60
2019-06-27T16:46:59.408Z,31.50
2019-06-27T16:49:25.469Z,31.30
2019-06-27T16:51:51.513Z,31.20
2019-06-27T16:54:17.584Z,31.10
2019-06-27T16:56:43.613Z,31.20
2019-06-27T16:59:09.675Z,31.20
2019-06-27T17:01:35.872Z,31.20
2019-06-27T17:04:02.083Z,31.10
2019-06-27T17:06:40.879Z,31.20
2019-06-27T17:08:56.084Z,31.20
2019-06-27T17:11:22.173Z,31.10
2019-06-27T17:13:48.309Z,31.10
2019-06-27T17:16:14.359Z,31.00
2019-06-27T17:18:40.408Z,31.00
2019-06-27T17:21:06.473Z,31.00
2019-06-27T17:23:32.523Z,30.90
2019-06-27T17:25:58.618Z,30.80
2019-06-27T17:28:24.663Z,30.80
2019-06-27T17:30:50.760Z,30.80
2019-06-27T17:33:17.871Z,30.80
2019-06-27T17:35:43.982Z,30.80
2019-06-27T17:38:10.078Z,30.80
2019-06-27T17:40:36.280Z,30.70
2019-06-27T17:43:02.330Z,30.60
2019-06-27T17:45:28.386Z,30.60
2019-06-27T17:47:54.544Z,30.60
2019-06-27T17:50:20.699Z,30.70
2019-06-27T17:52:46.850Z,30.60
2019-06-27T17:55:12.989Z,30.50
2019-06-27T17:57:39.444Z,30.50
2019-06-27T18:00:05.893Z,30.50
2019-06-27T18:02:31.973Z,30.40
2019-06-27T18:04:58.136Z,30.20
2019-06-27T18:07:24.210Z,30.20
2019-06-27T18:09:50.291Z,30.20
2019-06-27T18:12:16.367Z,30.20
2019-06-27T18:14:42.420Z,30.10
2019-06-27T18:17:08.468Z,29.90
2019-06-27T18:19:34.521Z,29.90
2019-06-27T18:22:00.574Z,29.90
2019-06-27T18:24:26.627Z,29.80
2019-06-27T18:26:52.698Z,29.80
2019-06-27T18:29:18.745Z,29.80
2019-06-27T18:31:44.793Z,29.80
2019-06-27T18:34:10.925Z,29.70
2019-06-27T18:36:36.985Z,29.60
2019-06-27T18:39:04.508Z,29.60
2019-06-27T18:41:30.554Z,29.50
2019-06-27T18:43:56.628Z,29.40
2019-06-27T18:46:22.690Z,29.30
2019-06-27T18:48:51.829Z,29.20
2019-06-27T18:51:16.828Z,29.00
2019-06-27T18:53:42.848Z,28.90
2019-06-27T18:56:08.891Z,28.90
2019-06-27T18:58:35.100Z,28.70
2019-06-27T19:01:01.135Z,28.70
2019-06-27T19:03:27.249Z,28.70
2019-06-27T19:05:53.357Z,28.60
2019-06-27T19:08:19.389Z,28.60
2019-06-27T19:10:45.615Z,28.60
2019-06-27T19:13:11.665Z,28.50
2019-06-27T19:15:37.715Z,28.40
2019-06-27T19:18:05.784Z,28.20
2019-06-27T19:20:33.808Z,28.20
2019-06-27T19:23:01.879Z,28.10
2019-06-27T19:25:30.001Z,28.10
2019-06-27T19:27:56.077Z,27.90
2019-06-27T19:30:22.130Z,27.80
2019-06-27T19:32:48.194Z,27.60
2019-06-27T19:35:14.215Z,27.60
2019-06-27T19:37:40.379Z,27.60
2019-06-27T19:40:06.785Z,27.60
2019-06-27T19:42:32.905Z,27.60
2019-06-27T19:44:59.059Z,27.50
2019-06-27T19:47:25.120Z,27.60
2019-06-27T19:49:51.249Z,27.50
2019-06-27T19:52:17.292Z,27.50
2019-06-27T19:54:43.345Z,27.40
2019-06-27T19:57:09.400Z,27.30
2019-06-27T19:59:35.459Z,27.10
2019-06-27T20:02:01.526Z,27.10
2019-06-27T20:04:27.653Z,27.00
2019-06-27T20:06:53.749Z,27.00
2019-06-27T20:09:19.780Z,26.90
2019-06-27T20:11:45.838Z,26.80
2019-06-27T20:14:11.909Z,26.80
2019-06-27T20:16:37.939Z,26.70
2019-06-27T20:19:05.981Z,26.60
2019-06-27T20:21:31.952Z,26.60
2019-06-27T20:23:58.234Z,26.50
2019-06-27T20:26:24.420Z,26.40
2019-06-27T20:28:50.477Z,26.30
2019-06-27T20:31:16.540Z,26.30
2019-06-27T20:33:42.605Z,26.20
2019-06-27T20:36:08.820Z,26.10
2019-06-27T20:38:35.543Z,26.00
2019-06-27T20:41:01.953Z,26.00
2019-06-27T20:43:27.974Z,25.90
2019-06-27T20:45:55.069Z,25.70
2019-06-27T20:48:21.130Z,25.60
2019-06-27T20:50:47.168Z,25.50
2019-06-27T20:53:13.238Z,25.40
2019-06-27T20:55:39.274Z,25.30
2019-06-27T20:58:05.356Z,25.30
2019-06-27T21:00:31.401Z,25.20
2019-06-27T21:02:57.472Z,25.10
2019-06-27T21:05:23.499Z,25.00
2019-06-27T21:07:49.559Z,25.00
2019-06-27T21:10:17.226Z,24.90
2019-06-27T21:12:43.378Z,24.80
2019-06-27T21:15:10.003Z,24.70
2019-06-27T21:17:36.123Z,24.70
2019-06-27T21:20:04.685Z,24.50
2019-06-27T21:22:30.837Z,24.50
2019-06-27T21:24:56.896Z,24.40
2019-06-27T21:27:23.051Z,24.30
2019-06-27T21:29:49.117Z,24.10
2019-06-27T21:32:30.524Z,24.10
2019-06-27T21:34:43.128Z,24.00
2019-06-27T21:37:09.281Z,24.00
2019-06-27T21:39:35.473Z,24.10
2019-06-27T21:42:01.512Z,24.00
2019-06-27T21:44:27.549Z,23.90
2019-06-27T21:46:53.613Z,23.80
2019-06-27T21:49:19.795Z,23.80
2019-06-27T21:51:45.855Z,23.80
2019-06-27T21:54:12.012Z,23.70
2019-06-27T21:56:38.060Z,23.50
2019-06-27T21:59:04.085Z,23.40
2019-06-27T22:01:30.258Z,23.30
2019-06-27T22:03:56.289Z,23.10
2019-06-27T22:06:22.432Z,23.00
2019-06-27T22:08:48.475Z,23.00
2019-06-27T22:11:14.500Z,22.80
2019-06-27T22:13:40.594Z,22.70
2019-06-27T22:16:06.687Z,22.70
2019-06-27T22:18:32.739Z,22.50
2019-06-27T22:20:58.798Z,22.30
2019-06-27T22:23:24.842Z,22.20
2019-06-27T22:25:50.893Z,22.10
2019-06-27T22:28:16.957Z,21.90
2019-06-27T22:30:43.001Z,21.80
2019-06-27T22:33:09.062Z,21.70
2019-06-27T22:35:35.178Z,21.60
2019-06-27T22:38:20.150Z,21.50
2019-06-27T22:41:05.021Z,21.40
2019-06-27T22:43:49.320Z,21.30
2019-06-27T22:46:33.902Z,21.20
2019-06-27T22:48:59.871Z,21.00
2019-06-27T22:51:34.128Z,21.00
2019-06-27T22:54:02.544Z,21.10
2019-06-27T22:56:28.660Z,21.00
2019-06-27T22:58:54.709Z,20.90
2019-06-27T23:01:20.748Z,20.80
2019-06-27T23:03:46.789Z,20.70
2019-06-27T23:06:12.853Z,20.60
2019-06-27T23:08:38.868Z,20.50
2019-06-27T23:11:04.925Z,20.50
2019-06-27T23:13:30.982Z,20.40
2019-06-27T23:15:57.031Z,20.30
2019-06-27T23:18:23.291Z,20.20
2019-06-27T23:20:49.453Z,20.10
2019-06-27T23:23:15.530Z,20.10
2019-06-27T23:25:41.572Z,20.00
2019-06-27T23:28:07.741Z,19.90
2019-06-27T23:30:33.778Z,19.80
2019-06-27T23:33:05.815Z,19.80
2019-06-27T23:35:31.929Z,19.80
2019-06-27T23:37:58.002Z,19.80
2019-06-27T23:40:24.099Z,19.70
2019-06-27T23:42:50.157Z,19.60
2019-06-27T23:45:16.226Z,19.50
2019-06-27T23:47:42.300Z,19.40
2019-06-27T23:50:09.058Z,19.40
2019-06-27T23:52:35.100Z,19.40
2019-06-27T23:55:01.999Z,19.20
2019-06-27T23:57:28.058Z,19.10
2019-06-27T23:59:54.148Z,19.00
